Time;durP1;ratioP1;P1;durP2;ratioP2;P2;SDS_P1;SDS_P2;PMS_P1;PMS_P2;Temp;Humidity;BMP_temperature;BMP_pressure;BME280_temperature;BME280_humidity;BME280_pressure;Samples;Min_cycle;Max_cycle;Signal;HPM_P1;HPM_P2
2022/01/02 15:33:37;;;;;;;22.80;3.67;;;;;;;-142.75;100.00;77168.75;5086181;28;20355;-67
2022/01/02 15:36:02;;;;;;;25.70;4.03;;;;;;;-142.75;100.00;77174.66;5068900;28;20040;-67
2022/01/02 15:38:27;;;;;;;20.98;2.58;;;;;;;-142.75;100.00;77164.81;5074485;28;20020;-69
2022/01/02 15:40:53;;;;;;;21.67;3.00;;;;;;;-142.75;100.00;77170.72;5063663;28;20025;-66
2022/01/02 15:43:18;;;;;;;19.75;2.53;;;;;;;-142.75;100.00;77162.84;5066981;28;20839;-66
2022/01/02 15:45:43;;;;;;;22.23;3.55;;;;;;;-142.75;100.00;77156.94;5063158;28;20083;-65
2022/01/02 15:48:08;;;;;;;18.00;2.67;;;;;;;-142.75;100.00;77147.09;5065062;28;20029;-67
2022/01/02 15:50:35;;;;;;;24.17;2.95;;;;;;;-142.75;100.00;77143.16;5067197;28;20089;-66
2022/01/02 15:53:01;;;;;;;21.92;3.05;;;;;;;-142.75;100.00;77139.22;5067950;28;20019;-66
2022/01/02 15:55:26;;;;;;;17.30;2.85;;;;;;;-142.75;100.00;77129.38;5077636;28;20032;-67
2022/01/02 15:57:51;;;;;;;23.02;3.42;;;;;;;-142.75;100.00;77119.53;5072945;28;20052;-67
2022/01/02 16:00:17;;;;;;;16.52;2.83;;;;;;;-142.75;100.00;77103.78;5073971;28;20135;-67
2022/01/02 16:02:42;;;;;;;26.00;3.13;;;;;;;-142.75;100.00;77113.63;5070203;28;20020;-68
2022/01/02 16:05:08;;;;;;;21.63;3.63;;;;;;;-142.75;100.00;77117.56;5078013;28;20288;-67
2022/01/02 16:07:33;;;;;;;25.70;3.00;;;;;;;-142.75;100.00;77113.63;5071485;28;20020;-66
2022/01/02 16:09:59;;;;;;;24.13;4.10;;;;;;;-142.75;100.00;77107.72;5076114;28;20040;-67
2022/01/02 16:12:24;;;;;;;22.60;3.97;;;;;;;-142.75;100.00;77111.66;5066582;28;20025;-68
2022/01/02 16:14:50;;;;;;;21.08;2.78;;;;;;;-142.75;100.00;77099.84;5072417;28;20057;-67
2022/01/02 16:17:17;;;;;;;13.52;2.03;;;;;;;-142.75;100.00;77097.88;5080424;28;20025;-67
2022/01/02 16:19:44;;;;;;;20.40;3.53;;;;;;;-142.75;100.00;77101.81;5073996;28;20585;-67
2022/01/02 16:22:10;;;;;;;20.80;3.03;;;;;;;-142.75;100.00;77091.97;5073239;28;20103;-67
2022/01/02 16:24:35;;;;;;;23.05;3.28;;;;;;;-142.75;100.00;77090.00;5069914;28;20520;-68
2022/01/02 16:27:00;;;;;;;19.25;3.38;;;;;;;-142.75;100.00;77090.00;5070634;28;20021;-67
2022/01/02 16:29:27;;;;;;;21.30;3.07;;;;;;;-142.75;100.00;77082.13;5064659;28;20102;-67
2022/01/02 16:31:54;;;;;;;16.00;3.00;;;;;;;-142.75;100.00;77074.25;5072873;28;20690;-67
2022/01/02 16:34:19;;;;;;;13.25;2.15;;;;;;;-142.75;100.00;77064.41;5073301;28;20551;-68
2022/01/02 16:36:45;;;;;;;17.33;2.85;;;;;;;-142.75;100.00;77058.50;5084011;28;20024;-68
2022/01/02 16:39:10;;;;;;;16.58;2.63;;;;;;;-142.75;100.00;77058.50;5076860;28;20390;-69
2022/01/02 16:41:35;;;;;;;16.40;1.92;;;;;;;-142.75;100.00;77058.50;5075551;28;20035;-67
2022/01/02 16:44:02;;;;;;;17.55;2.80;;;;;;;-142.75;100.00;77050.63;5063624;28;20024;-66
2022/01/02 16:46:27;;;;;;;16.05;2.28;;;;;;;-142.75;100.00;77050.63;5054154;28;20492;-67
2022/01/02 16:48:53;;;;;;;19.67;3.33;;;;;;;-142.75;100.00;77044.72;5062173;28;20020;-68
2022/01/02 16:51:18;;;;;;;11.95;1.63;;;;;;;-142.75;100.00;77050.63;5057194;28;20025;-68
2022/01/02 16:53:44;;;;;;;15.60;2.42;;;;;;;-142.75;100.00;77044.72;5067118;28;20092;-68
2022/01/02 16:56:09;;;;;;;19.00;2.90;;;;;;;-142.75;100.00;77046.69;5053222;28;20025;-68
2022/01/02 16:58:34;;;;;;;13.07;2.38;;;;;;;-142.75;100.00;77054.56;5053106;28;20025;-68
2022/01/02 17:00:59;;;;;;;12.73;2.40;;;;;;;-142.75;100.00;77042.75;5064594;28;20025;-68
2022/01/02 17:03:25;;;;;;;12.90;2.38;;;;;;;-142.75;100.00;77044.72;5062414;28;20036;-68
2022/01/02 17:05:51;;;;;;;10.23;1.95;;;;;;;-142.75;100.00;77038.81;5062449;28;20016;-68
2022/01/02 17:08:17;;;;;;;16.42;2.15;;;;;;;-142.75;100.00;77042.75;5070051;28;20064;-68
2022/01/02 17:10:43;;;;;;;;;;;;;;;-142.75;100.00;77042.75;5065640;28;20025;-67
2022/01/02 17:13:09;;;;;;;13.27;2.13;;;;;;;-142.75;100.00;77038.81;5051918;28;19912;-69
2022/01/02 17:15:35;;;;;;;17.30;2.22;;;;;;;-142.75;100.00;77028.97;5052658;28;20425;-68
2022/01/02 17:18:00;;;;;;;12.40;1.73;;;;;;;-142.75;100.00;77027.00;5053354;28;20028;-68
2022/01/02 17:20:28;;;;;;;10.65;1.65;;;;;;;-142.75;100.00;77023.06;5051433;28;20033;-67
2022/01/02 17:22:54;;;;;;;15.32;2.00;;;;;;;-142.75;100.00;77013.22;5048550;28;20100;-68
2022/01/02 17:25:20;;;;;;;11.40;1.70;;;;;;;-142.75;100.00;77011.25;5050426;28;20490;-68
2022/01/02 17:27:46;;;;;;;;;;;;;;;-142.75;100.00;77015.19;5056462;28;20033;-67
2022/01/02 17:30:14;;;;;;;8.48;2.00;;;;;;;-142.75;100.00;76995.50;5056691;28;19961;-68
2022/01/02 17:32:40;;;;;;;14.48;2.20;;;;;;;-142.75;100.00;77003.38;5068553;28;20108;-68
2022/01/02 17:35:08;;;;;;;13.43;2.20;;;;;;;-142.75;100.00;76999.44;5054309;28;20566;-67
2022/01/02 17:37:33;;;;;;;11.85;2.10;;;;;;;-142.75;100.00;76989.59;5055808;28;20425;-68
2022/01/02 17:39:59;;;;;;;11.85;1.55;;;;;;;-142.75;100.00;76983.69;5063079;28;20025;-67
2022/01/02 17:42:24;;;;;;;14.13;1.88;;;;;;;-142.75;100.00;76973.84;5054407;28;20024;-68
2022/01/02 17:44:50;;;;;;;12.60;2.20;;;;;;;-142.75;100.00;76975.81;5058445;28;20025;-68
2022/01/02 17:47:17;;;;;;;8.57;1.92;;;;;;;-142.75;100.00;76971.88;5051742;28;21139;-68
2022/01/02 17:49:43;;;;;;;13.23;2.03;;;;;;;-142.75;100.00;76964.00;5056391;28;20033;-67
2022/01/02 17:52:08;;;;;;;14.88;2.00;;;;;;;-142.75;100.00;76967.94;5060995;28;20040;-70
2022/01/02 17:54:35;;;;;;;8.93;1.85;;;;;;;-142.75;100.00;76960.06;5060008;28;20115;-68
2022/01/02 17:57:00;;;;;;;9.15;2.15;;;;;;;-142.75;100.00;76967.94;5069293;28;20040;-68
2022/01/02 17:59:26;;;;;;;16.23;1.83;;;;;;;-142.75;100.00;76965.97;5056912;28;20029;-69
2022/01/02 18:01:52;;;;;;;;;;;;;;;-142.75;100.00;76971.88;5067593;28;20031;-68
2022/01/02 18:04:19;;;;;;;14.30;2.00;;;;;;;-142.75;100.00;76964.00;5065752;28;20290;-66
2022/01/02 18:06:44;;;;;;;10.80;1.63;;;;;;;-142.75;100.00;76960.06;5069712;28;21414;-68
2022/01/02 18:09:14;;;;;;;8.40;1.67;;;;;;;-142.75;100.00;76967.94;5057310;28;20020;-67
2022/01/02 18:11:41;;;;;;;13.48;2.22;;;;;;;-142.75;100.00;76967.94;5064768;28;20100;-67
2022/01/02 18:14:07;;;;;;;11.50;1.98;;;;;;;-142.75;100.00;76967.94;5062963;28;20112;-68
2022/01/02 18:16:33;;;;;;;14.43;2.30;;;;;;;-142.75;100.00;76977.78;5059825;28;20028;-69
2022/01/02 18:18:58;;;;;;;10.95;1.67;;;;;;;-142.75;100.00;76999.44;5054429;28;20036;-67
2022/01/02 18:21:24;;;;;;;16.38;2.33;;;;;;;-142.75;100.00;76987.63;5058400;28;20028;-68
2022/01/02 18:23:54;;;;;;;;;;;;;;;-142.75;100.00;76999.44;5058126;28;20085;-69
2022/01/02 18:26:21;;;;;;;13.38;2.28;;;;;;;-142.75;100.00;77009.28;5052315;28;19940;-69
2022/01/02 18:28:46;;;;;;;8.30;1.85;;;;;;;-142.75;100.00;77019.13;5050846;28;20149;-66
2022/01/02 18:31:11;;;;;;;14.07;2.00;;;;;;;-142.75;100.00;77011.25;5051154;28;20517;-69
2022/01/02 18:33:37;;;;;;;13.35;1.77;;;;;;;-142.75;100.00;77013.22;5058965;28;20636;-69
2022/01/02 18:36:02;;;;;;;7.75;1.70;;;;;;;-142.75;100.00;77017.16;5055838;28;20142;-67
2022/01/02 18:38:28;;;;;;;12.98;1.48;;;;;;;-142.75;100.00;77015.19;5051795;28;20036;-67
2022/01/02 18:40:54;;;;;;;;;;;;;;;-142.75;100.00;77011.25;5048772;28;20037;-68
2022/01/02 18:43:21;;;;;;;9.05;1.60;;;;;;;-142.75;100.00;77015.19;5049277;28;19927;-67
2022/01/02 18:45:47;;;;;;;11.98;2.05;;;;;;;-142.75;100.00;77003.38;5052982;28;20398;-69
2022/01/02 18:48:12;;;;;;;15.00;2.28;;;;;;;-142.75;100.00;76999.44;5058550;28;20025;-66
2022/01/02 18:50:38;;;;;;;17.38;2.17;;;;;;;-142.75;100.00;76997.47;5065845;28;20095;-68
2022/01/02 18:53:03;;;;;;;11.57;2.42;;;;;;;-142.75;100.00;77007.31;5067737;28;20474;-67
2022/01/02 18:55:29;;;;;;;15.88;2.47;;;;;;;-142.75;100.00;76999.44;5068687;28;20040;-67
2022/01/02 18:57:54;;;;;;;10.10;2.08;;;;;;;-142.75;100.00;76995.50;5067362;28;20027;-67
2022/01/02 19:00:19;;;;;;;11.27;1.83;;;;;;;-142.75;100.00;76989.59;5068056;28;20421;-68
2022/01/02 19:02:45;;;;;;;17.45;2.67;;;;;;;-142.75;100.00;76995.50;5068586;28;20027;-67
2022/01/02 19:05:11;;;;;;;10.75;2.30;;;;;;;-142.75;100.00;77007.31;5068569;28;20396;-68
2022/01/02 19:07:36;;;;;;;16.40;2.63;;;;;;;-142.75;100.00;77019.13;5066986;28;20265;-67
2022/01/02 19:10:03;;;;;;;8.05;1.90;;;;;;;-142.75;100.00;77015.19;5062411;28;20449;-67
2022/01/02 19:12:28;;;;;;;10.45;2.03;;;;;;;-142.75;100.00;77017.16;5048290;28;20028;-67
2022/01/02 19:14:53;;;;;;;7.90;1.77;;;;;;;-142.75;100.00;77019.13;5048621;28;20033;-68
2022/01/02 19:17:19;;;;;;;16.27;2.73;;;;;;;-142.75;100.00;77017.16;5048465;28;20028;-68
2022/01/02 19:19:44;;;;;;;11.60;1.77;;;;;;;-142.75;100.00;77011.25;5066490;28;20274;-68
2022/01/02 19:22:09;;;;;;;12.85;1.90;;;;;;;-142.75;100.00;77007.31;5066838;28;20636;-69
2022/01/02 19:24:35;;;;;;;10.98;1.90;;;;;;;-142.75;100.00;76989.59;5053603;28;20074;-67
2022/01/02 19:27:00;;;;;;;13.63;2.08;;;;;;;-142.75;100.00;76979.75;5047071;28;20035;-68
2022/01/02 19:29:25;;;;;;;8.15;1.50;;;;;;;-142.75;100.00;76987.63;5048249;28;20025;-67
2022/01/02 19:31:51;;;;;;;7.65;1.63;;;;;;;-142.75;100.00;76977.78;5054355;28;20074;-68
2022/01/02 19:34:18;;;;;;;11.52;1.83;;;;;;;-142.75;100.00;76979.75;5066383;28;20039;-69
2022/01/02 19:36:44;;;;;;;10.68;2.03;;;;;;;-142.75;100.00;76975.81;5061477;28;20027;-67
2022/01/02 19:39:10;;;;;;;11.63;2.00;;;;;;;-142.75;100.00;76979.75;5052422;28;20017;-67
2022/01/02 19:41:37;;;;;;;11.68;2.28;;;;;;;-142.75;100.00;76967.94;5051303;28;20095;-68
2022/01/02 19:44:04;;;;;;;11.68;1.70;;;;;;;-142.75;100.00;76969.91;5068136;28;20020;-67
2022/01/02 19:46:31;;;;;;;15.55;1.77;;;;;;;-142.75;100.00;76962.03;5068112;28;20108;-67
2022/01/02 19:48:57;;;;;;;16.20;2.45;;;;;;;-142.75;100.00;76973.84;5068235;28;20658;-71
2022/01/02 19:51:22;;;;;;;18.25;2.63;;;;;;;-142.75;100.00;76969.91;5065676;28;20028;-69
2022/01/02 19:53:47;;;;;;;23.33;3.25;;;;;;;-142.75;100.00;76965.97;5057212;28;20048;-69
2022/01/02 19:56:13;;;;;;;13.27;2.42;;;;;;;-142.75;100.00;76964.00;5053086;28;20032;-68
2022/01/02 19:58:38;;;;;;;15.48;2.90;;;;;;;-142.75;100.00;76971.88;5047763;28;20024;-68
2022/01/02 20:01:03;;;;;;;24.55;2.72;;;;;;;-142.75;100.00;76975.81;5053123;28;20438;-68
2022/01/02 20:03:29;;;;;;;17.90;3.28;;;;;;;-142.75;100.00;76977.78;5048152;28;20025;-68
2022/01/02 20:05:54;;;;;;;18.25;2.70;;;;;;;-142.75;100.00;76983.69;5048022;28;20550;-68
2022/01/02 20:08:19;;;;;;;25.58;2.83;;;;;;;-142.75;100.00;76987.63;5064916;28;20379;-67
2022/01/02 20:10:45;;;;;;;14.48;2.47;;;;;;;-142.75;100.00;76985.66;5059942;28;20031;-68
2022/01/02 20:13:10;;;;;;;19.40;2.78;;;;;;;-142.75;100.00;76979.75;5054730;28;20025;-68
2022/01/02 20:15:35;;;;;;;18.77;2.88;;;;;;;-142.75;100.00;76989.59;5061140;28;20024;-67
2022/01/02 20:18:01;;;;;;;18.10;3.20;;;;;;;-142.75;100.00;76991.56;5066671;28;20088;-67
2022/01/02 20:20:29;;;;;;;17.83;2.55;;;;;;;-142.75;100.00;76989.59;5070527;28;20025;-67
2022/01/02 20:22:55;;;;;;;21.50;2.83;;;;;;;-142.75;100.00;76981.72;5071749;28;20017;-67
2022/01/02 20:25:22;;;;;;;18.02;2.63;;;;;;;-142.75;100.00;76997.47;5071197;28;20029;-66
2022/01/02 20:27:48;;;;;;;20.80;3.17;;;;;;;-142.75;100.00;76999.44;5071414;28;20036;-67
2022/01/02 20:30:14;;;;;;;14.13;2.53;;;;;;;-142.75;100.00;76997.47;5071133;28;20020;-67
2022/01/02 20:32:40;;;;;;;28.00;3.00;;;;;;;-142.75;100.00;77011.25;5069855;28;20102;-67
2022/01/02 20:35:09;;;;;;;17.40;2.97;;;;;;;-142.75;100.00;77003.38;5069425;28;20459;-66
2022/01/02 20:37:38;;;;;;;22.42;3.03;;;;;;;-142.75;100.00;77011.25;5071260;28;20032;-67
2022/01/02 20:40:06;;;;;;;25.52;2.90;;;;;;;-142.75;100.00;77005.34;5069077;28;20033;-66
2022/01/02 20:42:31;;;;;;;32.10;2.97;;;;;;;-142.75;100.00;77007.31;5056992;28;20017;-67
2022/01/02 20:44:56;;;;;;;21.50;2.70;;;;;;;-142.75;100.00;76997.47;5057262;28;20029;-66
2022/01/02 20:47:22;;;;;;;19.63;2.47;;;;;;;-142.75;100.00;77007.31;5060836;28;20075;-66
2022/01/02 20:49:47;;;;;;;18.55;2.42;;;;;;;-142.75;100.00;77019.13;5069773;28;20477;-66
2022/01/02 20:52:13;;;;;;;24.10;2.30;;;;;;;-142.75;100.00;77021.09;5066568;28;20028;-69
2022/01/02 20:54:39;;;;;;;17.95;2.65;;;;;;;-142.75;100.00;77027.00;5069208;28;20439;-67
2022/01/02 20:57:11;;;;;;;21.20;2.88;;;;;;;-142.75;100.00;77038.81;5061014;28;20099;-66
2022/01/02 20:59:38;;;;;;;17.25;2.83;;;;;;;-142.75;100.00;77038.81;5055906;28;20027;-66
2022/01/02 21:02:04;;;;;;;20.60;2.75;;;;;;;-142.75;100.00;77048.66;5069546;28;20055;-67
2022/01/02 21:04:29;;;;;;;22.17;2.83;;;;;;;-142.75;100.00;77058.50;5070908;28;20054;-67
2022/01/02 21:06:55;;;;;;;11.43;3.20;;;;;;;-142.75;100.00;77068.34;5070991;28;20028;-66
2022/01/02 21:09:20;;;;;;;15.52;2.28;;;;;;;-142.75;100.00;77070.31;5062839;28;20391;-67
2022/01/02 21:11:45;;;;;;;15.23;2.47;;;;;;;-142.75;100.00;77078.19;5050330;28;20109;-67
2022/01/02 21:14:11;;;;;;;14.27;2.13;;;;;;;-142.75;100.00;77082.13;5050858;28;20033;-67
2022/01/02 21:16:36;;;;;;;18.02;2.30;;;;;;;-142.75;100.00;77086.06;5050685;28;20103;-67
2022/01/02 21:19:02;;;;;;;19.23;2.67;;;;;;;-142.75;100.00;77099.84;5050767;28;20029;-66
2022/01/02 21:21:27;;;;;;;15.82;3.10;;;;;;;-142.75;100.00;77101.81;5050234;28;20047;-67
2022/01/02 21:23:53;;;;;;;18.98;2.05;;;;;;;-142.75;100.00;77101.81;5049219;28;20024;-65
2022/01/02 21:26:18;;;;;;;19.13;2.95;;;;;;;-142.75;100.00;77097.88;5048883;28;20033;-66
2022/01/02 21:28:45;;;;;;;13.68;2.65;;;;;;;-142.75;100.00;77119.53;5051401;28;20115;-66
2022/01/02 21:31:10;;;;;;;16.40;2.25;;;;;;;-142.75;100.00;77129.38;5020909;22;20093;-67
2022/01/02 21:33:36;;;;;;;17.05;2.58;;;;;;;-142.75;100.00;77115.59;4990560;28;20476;-66
2022/01/02 21:36:02;;;;;;;19.35;3.17;;;;;;;-142.75;100.00;77125.44;4989594;28;20543;-66
2022/01/02 21:38:27;;;;;;;;;;;;;;;-142.75;100.00;77123.47;4990925;28;20034;-67
2022/01/02 21:40:52;;;;;;;20.45;3.00;;;;;;;-142.75;100.00;77133.31;4990928;28;19967;-66
2022/01/02 21:43:18;;;;;;;20.98;2.60;;;;;;;-142.75;100.00;77141.19;4991822;28;20022;-66
2022/01/02 21:45:43;;;;;;;21.30;2.20;;;;;;;-142.75;100.00;77135.28;4991904;28;20172;-66
2022/01/02 21:48:09;;;;;;;21.98;2.30;;;;;;;-142.75;100.00;77141.19;4991704;28;20030;-66
2022/01/02 21:50:35;;;;;;;;;;;;;;;-142.75;100.00;77137.25;4990021;28;20026;-66
